Schellsburg, Pennsylvania
Current Conditions -  °F | °C
As of 7:15 AM on Friday 28 Nov 2014 (Local Time) from K2G9 Reporting Station
Light Snow Light Snow  
Wind Chill: 11°   Ceiling: 2900
Heat Index: 21°   Visibility: 5mi
Dew Point: 18°   Wind: 9mph
Humidity: 86%   Direction: 320°NW
Pressure: 30.2"   Gusts: NA
Location:  40.05°N, 78.64°W
Report Text: K2G9 281215Z AUTO 32008KT 5SM -SN SCT013 BKN029 OVC037 M06/M08 A3020 RMK AO2
Loading
Personal Weather Stations






























Interactive Weather Map New forecast layout! Learn more

10-Day Weather Forecast

Advertisements
Track Severe Weather on mobile